Terminal Aerodrome Forecast
Issued by NWS Wilmington, OH

Current Version | Previous Version | Graphics & Text | Print | Product List | Glossary On
Versions: 1 2 3 4 5 6 7 8 9 10 11 12 13 14 15 16 17 18 19 20 21 22 23 24 25 26 27 28 29 30 31 32 33
000
FTUS41 KILN 182300 RRA
TAFCVG
TAF
KCVG 182343Z 1900/2006 07010KT P6SM SCT090 OVC200
     FM190800 09012KT P6SM FEW050 OVC100
     FM191200 10012G20KT P6SM -SHRA SCT025 OVC040
     FM191500 12014G24KT 5SM -SHRA OVC025
     FM192000 17012G22KT 4SM -SHRA BR VCTS OVC025CB
     FM200000 21014G23KT P6SM VCSH OVC020=

USA.gov is the U.S. government's official web portal to all federal, state and local government web resources and services.